ESOK/KSD METAR and TAF weather

Enter ICAO airport designator
Station Type Date Time Source
ESOK METAR 2018/01/24 06:50 UTC NOAA

ESOK 240650Z 22009KT 9999 BKN006 04/03 Q0995


Station Type Date Time Source
ESOK Decoded METAR 2018/01/24 06:50 UTC NOAA

Karlstad , Sweden (ESOK) 59-26-41N 013-20-15E
Jan 24, 2018 - 01:50 AM EST / 2018.01.24 0650 UTC
Wind: from the SW (220 degrees) at 10 MPH (9 KT):0
Visibility: greater than 7 mile(s):0
Sky conditions: mostly cloudy
Temperature: 39 F (4 C)
Dew Point: 37 F (3 C)
Relative Humidity: 93%
Pressure (altimeter): 29.38 in. Hg (0995 hPa)
ob: ESOK 240650Z 22009KT 9999 BKN006 04/03 Q0995
cycle: 7

Station Type Date Time Source
ESOK TAF 2017/05/22 06:33 UTC NOAA

TAF ESOK 220530Z 2206/2224 28006KT CAVOK


Example: see airport list